Airport View

Enter AWOS ICAO identifier for current METAR.

ex. KFNL

PASH 212256Z AUTO 04011KT 10SM FEW024 BKN030 BKN036 07/03 A2955 RMK AO2 SLP007 T00670033

21 Sep 2019 23:47

Frequency: 121.1

Other Area AWOS: PFKT - PATE - PATC - PAIW

TAF PAOT 211730Z 2118/2218 09005KT P6SM SCT040 OVC050 FM212100 24005KT P6SM SCT050 BKN070 FM220600 12005KT P6SM BKN080